Time;durP1;ratioP1;P1;durP2;ratioP2;P2;SDS_P1;SDS_P2;PMS_P1;PMS_P2;Temp;Humidity;BMP_temperature;BMP_pressure;BME280_temperature;BME280_humidity;BME280_pressure;Samples;Min_cycle;Max_cycle;Signal;HPM_P1;HPM_P2
2021/06/08 00:00:03;;;;;;;12.45;11.25;;;20.40;61.60;;;;;;1483356;40;20263;-61
2021/06/08 00:01:25;;;;;;;11.93;10.65;;;20.30;61.60;;;;;;1483770;40;20025;-60
2021/06/08 00:02:46;;;;;;;12.60;10.68;;;20.30;61.70;;;;;;1482036;40;20408;-61
2021/06/08 00:04:07;;;;;;;12.68;11.20;;;20.30;61.80;;;;;;1480162;40;20037;-61
2021/06/08 00:05:28;;;;;;;13.15;11.85;;;20.30;61.80;;;;;;1481875;40;20044;-61
2021/06/08 00:06:50;;;;;;;13.48;12.10;;;20.30;62.00;;;;;;1482083;40;20082;-60
2021/06/08 00:08:11;;;;;;;12.18;10.98;;;20.30;62.10;;;;;;1480418;40;20363;-61
2021/06/08 00:09:32;;;;;;;12.05;10.55;;;20.20;62.10;;;;;;1481491;40;20036;-60
2021/06/08 00:10:53;;;;;;;11.90;10.43;;;20.20;62.10;;;;;;1481073;40;20040;-61
2021/06/08 00:12:14;;;;;;;11.55;10.35;;;20.20;62.20;;;;;;1480993;40;20029;-60
2021/06/08 00:13:35;;;;;;;11.55;10.35;;;20.20;62.10;;;;;;1479213;40;20021;-60
2021/06/08 00:14:56;;;;;;;12.20;10.90;;;20.20;62.10;;;;;;1480715;40;20282;-60
2021/06/08 00:16:18;;;;;;;13.13;10.90;;;20.20;62.20;;;;;;1480550;40;20059;-60
2021/06/08 00:17:39;;;;;;;12.20;10.77;;;20.20;62.30;;;;;;1482221;40;20028;-60
2021/06/08 00:19:00;;;;;;;12.20;11.10;;;20.20;62.30;;;;;;1479745;40;20346;-60
2021/06/08 00:20:21;;;;;;;12.73;11.52;;;20.20;62.30;;;;;;1480749;40;20040;-60
2021/06/08 00:21:42;;;;;;;13.40;11.90;;;20.20;62.40;;;;;;1478773;40;20021;-60
2021/06/08 00:23:03;;;;;;;12.90;11.60;;;20.20;62.50;;;;;;1483125;40;20370;-60
2021/06/08 00:24:24;;;;;;;13.30;11.95;;;20.10;62.50;;;;;;1481901;40;20035;-60
2021/06/08 00:25:45;;;;;;;13.25;11.95;;;20.10;62.60;;;;;;1478959;40;20150;-60
2021/06/08 00:27:06;;;;;;;12.85;11.63;;;20.10;62.60;;;;;;1482291;40;20035;-60
2021/06/08 00:28:27;;;;;;;13.52;12.20;;;20.10;62.70;;;;;;1481558;40;20073;-60
2021/06/08 00:29:48;;;;;;;13.50;12.13;;;20.20;62.80;;;;;;1482469;40;20309;-60
2021/06/08 00:31:09;;;;;;;13.05;11.68;;;20.10;62.80;;;;;;1481970;40;20072;-61
2021/06/08 00:32:30;;;;;;;12.52;11.32;;;20.10;62.90;;;;;;1479715;40;20072;-60
2021/06/08 00:33:53;;;;;;;13.15;11.75;;;20.10;62.90;;;;;;1481796;40;20266;-60
2021/06/08 00:35:14;;;;;;;13.02;11.65;;;20.10;62.80;;;;;;1479999;40;20054;-60
2021/06/08 00:36:34;;;;;;;23.92;12.35;;;20.10;62.70;;;;;;1480020;40;20085;-60
2021/06/08 00:37:55;;;;;;;12.27;10.98;;;20.10;62.70;;;;;;1477353;40;20029;-60
2021/06/08 00:39:16;;;;;;;12.68;11.38;;;20.10;62.80;;;;;;1480087;40;20037;-60
2021/06/08 00:40:42;;;;;;;12.95;11.65;;;20.10;62.80;;;;;;1480356;40;20090;-60
2021/06/08 00:42:03;;;;;;;12.63;11.35;;;20.10;63.10;;;;;;1481479;40;20036;-60
2021/06/08 00:43:24;;;;;;;13.48;11.43;;;20.10;62.90;;;;;;1480884;40;20021;-60
2021/06/08 00:44:45;;;;;;;13.32;12.02;;;20.10;62.90;;;;;;1480868;40;20044;-60
2021/06/08 00:46:06;;;;;;;13.65;12.27;;;20.10;62.90;;;;;;1481516;40;20037;-60
2021/06/08 00:47:27;;;;;;;13.38;12.07;;;20.10;63.10;;;;;;1481404;40;20421;-60
2021/06/08 00:48:48;;;;;;;14.13;12.70;;;20.10;63.10;;;;;;1477352;40;20033;-60
2021/06/08 00:50:10;;;;;;;15.38;13.77;;;20.10;63.10;;;;;;1481480;40;20065;-60
2021/06/08 00:51:31;;;;;;;16.13;14.45;;;20.10;63.20;;;;;;1481679;40;20596;-60
2021/06/08 00:52:52;;;;;;;16.50;14.80;;;20.10;63.20;;;;;;1480587;40;20375;-60
2021/06/08 00:54:13;;;;;;;16.85;15.05;;;20.10;63.20;;;;;;1482059;40;20070;-60
2021/06/08 00:55:33;;;;;;;15.70;14.10;;;20.00;63.20;;;;;;1482593;40;20375;-60
2021/06/08 00:56:57;;;;;;;16.27;14.38;;;20.00;63.30;;;;;;1482109;40;20040;-61
2021/06/08 00:58:18;;;;;;;16.33;14.13;;;20.00;63.30;;;;;;1479430;40;20029;-60
2021/06/08 00:59:39;;;;;;;16.75;14.88;;;20.00;63.30;;;;;;1479295;40;20021;-60
2021/06/08 01:01:00;;;;;;;17.13;15.32;;;20.00;63.20;;;;;;1482157;40;20041;-60
2021/06/08 01:02:21;;;;;;;16.33;14.68;;;20.00;63.10;;;;;;1479838;40;20025;-60
2021/06/08 01:03:42;;;;;;;16.90;15.20;;;20.00;63.20;;;;;;1480014;40;20041;-60
2021/06/08 01:05:05;;;;;;;17.67;15.88;;;20.00;63.20;;;;;;1477125;40;20032;-60
2021/06/08 01:06:26;;;;;;;20.00;16.42;;;20.00;63.10;;;;;;1477869;40;20038;-60
2021/06/08 01:07:47;;;;;;;17.95;16.05;;;20.00;63.00;;;;;;1481628;40;20153;-60
2021/06/08 01:09:08;;;;;;;21.05;18.05;;;19.90;63.10;;;;;;1480844;40;20076;-60
2021/06/08 01:10:29;;;;;;;19.05;17.05;;;19.90;63.10;;;;;;1480494;40;20017;-60
2021/06/08 01:11:50;;;;;;;19.52;17.40;;;20.00;63.20;;;;;;1472889;40;20135;-60
2021/06/08 01:13:11;;;;;;;19.63;17.60;;;20.00;63.20;;;;;;1481861;40;20033;-60
2021/06/08 01:14:32;;;;;;;19.90;17.80;;;19.90;63.20;;;;;;1479610;40;20025;-61
2021/06/08 01:15:53;;;;;;;20.20;18.10;;;19.90;63.20;;;;;;1482017;40;20037;-59
2021/06/08 01:17:14;;;;;;;20.27;18.13;;;19.90;63.30;;;;;;1482493;40;20037;-61
2021/06/08 01:18:35;;;;;;;21.98;18.15;;;19.90;63.30;;;;;;1481704;40;20028;-60
2021/06/08 01:19:58;;;;;;;21.35;18.92;;;19.90;63.40;;;;;;1483000;40;20039;-61
2021/06/08 01:21:18;;;;;;;20.70;18.45;;;19.90;63.40;;;;;;1479193;40;20021;-61
2021/06/08 01:22:39;;;;;;;21.20;18.73;;;19.90;63.40;;;;;;1480310;40;20013;-61
2021/06/08 01:24:02;;;;;;;22.35;20.02;;;19.80;63.30;;;;;;1480098;40;20529;-61
2021/06/08 01:25:23;;;;;;;26.52;20.27;;;19.90;63.50;;;;;;1480845;40;20028;-61
2021/06/08 01:26:44;;;;;;;22.33;19.90;;;19.80;63.40;;;;;;1480016;40;20318;-61
2021/06/08 01:28:05;;;;;;;20.23;18.00;;;19.90;63.30;;;;;;1479909;40;20052;-60
2021/06/08 01:29:29;;;;;;;21.10;18.90;;;19.80;64.00;;;;;;1482151;40;20024;-61
2021/06/08 01:30:54;;;;;;;21.13;18.88;;;19.80;63.30;;;;;;1480696;40;20449;-61
2021/06/08 01:32:17;;;;;;;20.63;18.42;;;19.80;63.30;;;;;;1481611;40;20029;-61
2021/06/08 01:33:43;;;;;;;21.35;19.13;;;19.80;63.30;;;;;;1480107;40;20021;-61
2021/06/08 01:35:05;;;;;;;22.60;19.35;;;19.80;63.30;;;;;;1480909;40;20033;-60
2021/06/08 01:36:28;;;;;;;22.60;20.02;;;19.80;63.30;;;;;;1479726;40;20044;-61
2021/06/08 01:37:49;;;;;;;20.58;18.38;;;19.70;63.30;;;;;;1481000;40;20044;-61
2021/06/08 01:39:10;;;;;;;22.75;19.45;;;19.70;63.20;;;;;;1482447;40;20122;-61
2021/06/08 01:40:31;;;;;;;20.05;17.92;;;19.70;63.20;;;;;;1481255;40;20122;-60
2021/06/08 01:41:53;;;;;;;20.52;18.38;;;19.70;63.30;;;;;;1482463;40;20055;-61
2021/06/08 01:43:14;;;;;;;19.73;17.63;;;19.70;64.20;;;;;;1481357;40;20036;-60
2021/06/08 01:44:35;;;;;;;21.65;18.15;;;19.70;63.60;;;;;;1480777;40;20025;-61
2021/06/08 01:45:56;;;;;;;21.02;18.75;;;19.60;63.60;;;;;;1485333;39;20327;-61
2021/06/08 01:47:17;;;;;;;20.75;18.10;;;19.70;63.70;;;;;;1483337;40;20036;-61
2021/06/08 01:48:38;;;;;;;18.48;16.42;;;19.70;63.80;;;;;;1481556;40;20043;-60
2021/06/08 01:49:59;;;;;;;18.98;16.98;;;19.60;63.70;;;;;;1479410;40;20235;-61
2021/06/08 01:51:49;;;;;;;18.92;16.92;;;19.60;63.80;;;;;;1479662;40;20021;-60
2021/06/08 01:53:13;;;;;;;;;;;19.60;63.90;;;;;;1480239;40;20025;-61
2021/06/08 01:54:45;;;;;;;15.70;14.10;;;19.70;64.00;;;;;;1480685;40;19939;-61
2021/06/08 01:56:11;;;;;;;17.08;15.27;;;19.70;63.40;;;;;;1480303;40;20029;-61
2021/06/08 01:57:48;;;;;;;19.95;16.40;;;19.70;63.30;;;;;;1481429;40;20387;-61
2021/06/08 01:59:20;;;;;;;17.92;15.68;;;19.60;63.50;;;;;;1481563;40;20025;-61
2021/06/08 02:00:57;;;;;;;18.60;15.80;;;19.70;63.50;;;;;;1480780;40;20061;-61
2021/06/08 02:02:59;;;;;;;19.25;17.25;;;19.60;63.60;;;;;;1482699;40;20358;-61
2021/06/08 02:04:27;;;;;;;17.05;14.90;;;19.60;63.70;;;;;;1480720;40;20039;-61
2021/06/08 02:06:01;;;;;;;17.70;15.90;;;19.60;63.20;;;;;;1478304;40;20041;-60
2021/06/08 02:07:49;;;;;;;17.45;15.50;;;19.60;63.40;;;;;;1478810;40;20025;-61
2021/06/08 02:09:36;;;;;;;17.15;15.27;;;19.60;63.40;;;;;;1479914;40;20036;-61
2021/06/08 02:11:19;;;;;;;18.02;16.05;;;19.60;63.50;;;;;;1482612;40;20035;-61
2021/06/08 02:12:47;;;;;;;17.38;15.57;;;19.60;63.30;;;;;;1482030;40;20021;-60
2021/06/08 02:14:47;;;;;;;17.15;15.30;;;19.60;63.20;;;;;;1478880;40;20029;-61
2021/06/08 02:16:25;;;;;;;16.65;14.68;;;19.50;63.30;;;;;;1473077;40;20057;-60
2021/06/08 02:17:51;;;;;;;16.45;14.68;;;19.50;63.20;;;;;;1477079;40;20278;-60
2021/06/08 02:19:15;;;;;;;17.05;15.13;;;19.50;63.20;;;;;;1476497;40;20543;-61
2021/06/08 02:20:38;;;;;;;18.35;16.10;;;19.50;63.20;;;;;;1477742;40;20274;-60
2021/06/08 02:22:02;;;;;;;17.92;16.02;;;19.50;63.30;;;;;;1479017;40;20032;-60
2021/06/08 02:23:24;;;;;;;17.15;15.35;;;19.50;63.30;;;;;;1479046;40;20033;-61
2021/06/08 02:24:46;;;;;;;17.48;15.73;;;19.50;63.40;;;;;;1477169;40;20022;-61
2021/06/08 02:26:08;;;;;;;18.67;16.63;;;19.50;63.50;;;;;;1476133;40;20313;-61
2021/06/08 02:27:29;;;;;;;18.92;15.82;;;19.40;63.40;;;;;;1477536;40;20018;-60
2021/06/08 02:28:51;;;;;;;19.20;16.10;;;19.40;63.50;;;;;;1471526;40;20030;-61
2021/06/08 02:30:12;;;;;;;19.08;15.93;;;19.40;63.60;;;;;;1474099;40;20040;-61
2021/06/08 02:31:34;;;;;;;18.83;16.35;;;19.40;63.60;;;;;;1477437;40;20024;-61
2021/06/08 02:32:57;;;;;;;18.95;16.25;;;19.40;63.50;;;;;;1469639;40;20039;-61
2021/06/08 02:34:19;;;;;;;16.73;14.93;;;19.40;63.40;;;;;;1475566;40;20593;-60
2021/06/08 02:35:41;;;;;;;17.45;15.40;;;19.40;63.50;;;;;;1476379;40;20037;-61
2021/06/08 02:37:03;;;;;;;17.80;14.95;;;19.40;63.60;;;;;;1475018;40;20037;-60
2021/06/08 02:38:26;;;;;;;16.33;14.57;;;19.30;63.50;;;;;;1477346;40;20027;-61
2021/06/08 02:39:48;;;;;;;16.75;14.80;;;19.30;63.40;;;;;;1474051;40;20045;-60
2021/06/08 02:41:10;;;;;;;17.02;15.32;;;19.30;63.50;;;;;;1475896;40;20065;-61
2021/06/08 02:42:31;;;;;;;16.27;14.52;;;19.30;63.60;;;;;;1476224;40;20021;-60
2021/06/08 02:43:53;;;;;;;17.65;14.50;;;19.30;63.60;;;;;;1476852;40;20033;-61
2021/06/08 02:45:15;;;;;;;16.65;14.88;;;19.30;63.70;;;;;;1476642;40;20355;-61
2021/06/08 02:46:37;;;;;;;18.05;15.48;;;19.30;63.70;;;;;;1477180;40;20025;-61
2021/06/08 02:47:59;;;;;;;16.55;14.55;;;19.30;63.70;;;;;;1476559;40;20044;-61
2021/06/08 02:49:22;;;;;;;16.08;14.45;;;19.30;63.60;;;;;;1480115;40;20031;-61
2021/06/08 02:50:46;;;;;;;15.40;13.60;;;19.30;63.70;;;;;;1476628;40;20034;-61
2021/06/08 02:52:08;;;;;;;18.58;14.77;;;19.20;63.50;;;;;;1476320;40;20065;-61
2021/06/08 02:53:29;;;;;;;15.93;14.07;;;19.20;63.50;;;;;;1476872;40;20107;-61
2021/06/08 02:54:51;;;;;;;15.43;13.90;;;19.30;63.60;;;;;;1477195;40;20037;-60
2021/06/08 02:56:13;;;;;;;16.05;13.80;;;19.20;63.40;;;;;;1477690;40;20046;-61
2021/06/08 02:57:34;;;;;;;15.55;13.93;;;19.20;63.30;;;;;;1476633;40;20036;-60
2021/06/08 02:58:55;;;;;;;17.15;14.38;;;19.20;63.30;;;;;;1476517;40;20030;-61
2021/06/08 03:00:17;;;;;;;15.70;14.05;;;19.20;63.40;;;;;;1477394;40;20119;-61
2021/06/08 03:01:44;;;;;;;16.48;14.70;;;19.20;63.50;;;;;;1477569;40;20395;-61
2021/06/08 03:03:08;;;;;;;16.58;14.05;;;19.20;63.60;;;;;;1479160;40;20029;-60
2021/06/08 03:04:55;;;;;;;14.55;13.05;;;19.20;63.60;;;;;;1475868;40;20032;-61
2021/06/08 03:06:26;;;;;;;14.75;12.73;;;19.10;63.60;;;;;;1475555;40;20298;-60
2021/06/08 03:07:48;;;;;;;14.10;12.63;;;19.10;63.60;;;;;;1475714;40;20037;-60
2021/06/08 03:09:15;;;;;;;14.20;12.70;;;19.10;63.40;;;;;;1475836;40;20040;-61
2021/06/08 03:10:37;;;;;;;14.88;13.27;;;19.10;63.50;;;;;;1478127;40;20025;-61
2021/06/08 03:12:01;;;;;;;14.90;12.63;;;19.10;63.50;;;;;;1476214;40;20056;-61
2021/06/08 03:13:23;;;;;;;15.07;13.55;;;19.10;63.60;;;;;;1477036;40;20040;-60
2021/06/08 03:14:47;;;;;;;15.32;13.20;;;19.10;63.50;;;;;;1475249;40;20041;-61
2021/06/08 03:16:10;;;;;;;13.98;12.57;;;19.10;64.30;;;;;;1480177;40;20053;-60
2021/06/08 03:17:34;;;;;;;13.55;12.15;;;19.10;63.60;;;;;;1476413;40;20099;-60
2021/06/08 03:19:01;;;;;;;13.98;12.52;;;19.00;63.60;;;;;;1479556;40;20029;-60
2021/06/08 03:20:38;;;;;;;13.27;11.70;;;19.00;63.60;;;;;;1479451;40;20037;-61
2021/06/08 03:22:05;;;;;;;14.48;12.52;;;19.00;63.70;;;;;;1479939;40;20024;-61
2021/06/08 03:23:36;;;;;;;13.65;12.25;;;19.00;63.40;;;;;;1480332;40;20052;-61
2021/06/08 03:24:59;;;;;;;13.52;12.13;;;19.00;63.70;;;;;;1481096;40;20029;-61
2021/06/08 03:26:23;;;;;;;14.52;12.07;;;19.00;63.50;;;;;;1480258;40;20035;-60
2021/06/08 03:27:44;;;;;;;13.60;12.18;;;19.00;63.60;;;;;;1481150;40;20025;-60
2021/06/08 03:29:10;;;;;;;13.63;11.88;;;19.00;63.40;;;;;;1480278;40;20029;-60
2021/06/08 03:30:32;;;;;;;12.50;11.02;;;19.00;63.40;;;;;;1481039;40;20036;-61
2021/06/08 03:31:54;;;;;;;12.85;11.55;;;19.00;63.40;;;;;;1477145;40;20459;-61
2021/06/08 03:33:15;;;;;;;12.95;11.55;;;18.90;63.40;;;;;;1480501;40;20040;-61
2021/06/08 03:34:38;;;;;;;12.43;11.15;;;18.90;63.50;;;;;;1481480;40;20031;-60
2021/06/08 03:35:59;;;;;;;12.32;10.95;;;18.90;63.50;;;;;;1477812;40;20047;-61
2021/06/08 03:37:22;;;;;;;12.88;11.48;;;18.90;63.50;;;;;;1481190;40;20076;-60
2021/06/08 03:38:44;;;;;;;12.57;11.20;;;18.90;63.50;;;;;;1480009;40;20095;-60
2021/06/08 03:40:06;;;;;;;12.10;10.90;;;18.90;63.50;;;;;;1479956;40;20029;-61
2021/06/08 03:41:28;;;;;;;12.95;11.65;;;18.90;63.60;;;;;;1481316;40;20056;-60
2021/06/08 03:42:51;;;;;;;12.18;10.70;;;18.90;63.60;;;;;;1479430;40;20025;-61
2021/06/08 03:44:13;;;;;;;11.90;10.63;;;18.80;63.60;;;;;;1481475;40;20033;-61
2021/06/08 03:45:35;;;;;;;11.35;10.20;;;18.80;63.50;;;;;;1480529;40;20025;-61
2021/06/08 03:46:56;;;;;;;12.35;11.15;;;18.80;63.50;;;;;;1478490;40;20095;-63
2021/06/08 03:48:18;;;;;;;12.63;10.38;;;18.90;63.60;;;;;;1483501;39;20388;-61
2021/06/08 03:49:39;;;;;;;11.18;10.07;;;18.90;63.60;;;;;;1480498;40;20043;-61
2021/06/08 03:51:01;;;;;;;11.32;10.13;;;18.80;63.50;;;;;;1479991;40;20025;-61
2021/06/08 03:52:25;;;;;;;10.80;9.70;;;18.80;63.60;;;;;;1482181;40;20080;-60
2021/06/08 03:53:47;;;;;;;11.65;9.73;;;18.80;63.70;;;;;;1480016;40;20032;-60
2021/06/08 03:55:09;;;;;;;11.48;10.05;;;18.80;63.70;;;;;;1481468;40;20113;-61
2021/06/08 03:56:30;;;;;;;11.02;9.93;;;18.80;63.80;;;;;;1481188;40;20052;-61
2021/06/08 03:57:54;;;;;;;13.25;10.40;;;18.80;63.80;;;;;;1480743;40;20406;-61
2021/06/08 03:59:18;;;;;;;11.52;10.32;;;18.80;63.70;;;;;;1480434;40;20069;-60
2021/06/08 04:00:41;;;;;;;10.75;9.75;;;18.80;63.80;;;;;;1478782;40;20061;-61
2021/06/08 04:02:03;;;;;;;10.43;9.43;;;18.80;64.40;;;;;;1475918;40;20025;-60
2021/06/08 04:03:25;;;;;;;10.45;9.27;;;18.80;63.80;;;;;;1480877;40;20040;-61
2021/06/08 04:04:46;;;;;;;13.18;9.77;;;18.80;63.90;;;;;;1480260;40;20033;-60
2021/06/08 04:06:08;;;;;;;10.27;9.27;;;18.80;64.00;;;;;;1478313;40;20025;-62
2021/06/08 04:07:29;;;;;;;10.57;9.48;;;18.80;63.90;;;;;;1481334;40;20052;-61
2021/06/08 04:08:50;;;;;;;11.65;10.07;;;18.80;63.90;;;;;;1481213;40;20033;-61
2021/06/08 04:10:18;;;;;;;10.77;9.70;;;18.80;63.90;;;;;;1479956;40;20033;-61
2021/06/08 04:11:43;;;;;;;10.43;9.40;;;18.80;64.00;;;;;;1481082;40;20030;-61
2021/06/08 04:13:05;;;;;;;10.50;9.40;;;18.70;64.00;;;;;;1481820;40;20033;-61
2021/06/08 04:14:27;;;;;;;11.43;9.73;;;18.80;64.00;;;;;;1482062;40;20082;-61
2021/06/08 04:15:50;;;;;;;10.43;9.30;;;18.80;63.90;;;;;;1481847;40;20041;-61
2021/06/08 04:17:11;;;;;;;11.65;9.93;;;18.80;64.10;;;;;;1483560;40;20044;-60
2021/06/08 04:18:33;;;;;;;10.60;9.50;;;18.80;64.10;;;;;;1482123;40;20059;-61
2021/06/08 04:19:54;;;;;;;9.88;8.98;;;18.80;64.20;;;;;;1480355;40;20075;-61
2021/06/08 04:21:15;;;;;;;11.15;9.65;;;18.70;64.10;;;;;;1481489;40;20033;-60
2021/06/08 04:22:37;;;;;;;10.25;8.73;;;18.70;64.10;;;;;;1478158;40;20406;-60
2021/06/08 04:23:59;;;;;;;12.93;9.73;;;18.80;64.20;;;;;;1481109;40;20106;-60
2021/06/08 04:25:21;;;;;;;9.57;8.68;;;18.70;64.20;;;;;;1479037;40;20118;-60
2021/06/08 04:26:42;;;;;;;11.80;9.02;;;18.70;64.10;;;;;;1478519;40;20036;-61
2021/06/08 04:28:03;;;;;;;10.30;8.60;;;18.70;64.20;;;;;;1479984;40;20025;-61
2021/06/08 04:29:24;;;;;;;10.38;8.10;;;18.70;64.30;;;;;;1480261;40;20029;-60
2021/06/08 04:30:47;;;;;;;9.45;8.45;;;18.70;64.20;;;;;;1479582;40;20029;-60
2021/06/08 04:32:08;;;;;;;11.77;9.30;;;18.70;64.20;;;;;;1481838;40;20273;-61
2021/06/08 04:33:30;;;;;;;9.73;8.77;;;18.70;64.10;;;;;;1482099;40;20021;-60
2021/06/08 04:34:52;;;;;;;10.32;9.32;;;18.70;64.10;;;;;;1480912;40;20028;-61
2021/06/08 04:36:14;;;;;;;9.80;8.80;;;18.80;64.10;;;;;;1480684;40;20334;-60
2021/06/08 04:37:39;;;;;;;9.75;8.77;;;18.80;64.00;;;;;;1481794;40;20025;-61
2021/06/08 04:39:00;;;;;;;9.10;8.20;;;18.80;64.20;;;;;;1481943;40;20036;-60
2021/06/08 04:40:23;;;;;;;9.82;8.23;;;18.80;64.20;;;;;;1479592;40;20052;-61
2021/06/08 04:41:45;;;;;;;9.80;8.18;;;18.80;64.10;;;;;;1479767;40;20025;-60
2021/06/08 04:43:06;;;;;;;9.63;8.52;;;18.70;64.00;;;;;;1481770;40;20046;-61
2021/06/08 04:44:26;;;;;;;9.70;8.60;;;18.80;64.10;;;;;;1478566;40;20021;-61
2021/06/08 04:45:48;;;;;;;9.10;8.20;;;18.80;64.10;;;;;;1480003;40;20044;-61
2021/06/08 04:47:10;;;;;;;9.38;8.38;;;18.80;64.10;;;;;;1481009;40;20114;-61
2021/06/08 04:48:32;;;;;;;9.25;8.35;;;18.80;64.20;;;;;;1479349;40;20024;-60
2021/06/08 04:49:54;;;;;;;10.60;8.82;;;18.80;64.40;;;;;;1478909;40;20036;-60
2021/06/08 04:51:14;;;;;;;9.93;8.13;;;18.80;64.40;;;;;;1480422;40;20033;-60
2021/06/08 04:52:36;;;;;;;9.00;8.10;;;18.80;64.60;;;;;;1479469;40;20024;-61
2021/06/08 04:53:57;;;;;;;8.75;7.80;;;18.80;64.50;;;;;;1480145;40;20028;-60
2021/06/08 04:55:18;;;;;;;9.48;8.48;;;18.80;64.30;;;;;;1481445;40;20065;-61
2021/06/08 04:56:39;;;;;;;8.82;7.68;;;18.80;64.20;;;;;;1479407;40;20030;-61
2021/06/08 04:58:00;;;;;;;9.85;7.60;;;18.80;64.20;;;;;;1480051;40;20129;-60
2021/06/08 04:59:33;;;;;;;8.90;7.93;;;18.80;64.20;;;;;;1474754;40;20123;-61
2021/06/08 05:01:00;;;;;;;8.77;7.85;;;18.80;64.00;;;;;;1474426;40;20017;-61
2021/06/08 05:02:35;;;;;;;8.43;7.63;;;18.80;64.00;;;;;;1481993;40;20058;-60
2021/06/08 05:04:02;;;;;;;8.13;7.30;;;18.80;64.00;;;;;;1477458;40;20083;-61
2021/06/08 05:05:26;;;;;;;9.40;8.38;;;18.80;64.00;;;;;;1479635;40;20065;-60
2021/06/08 05:06:57;;;;;;;8.02;7.22;;;18.80;63.90;;;;;;1479929;40;20130;-61
2021/06/08 05:08:32;;;;;;;8.25;7.45;;;18.80;64.00;;;;;;1480489;40;20028;-60
2021/06/08 05:09:54;;;;;;;8.02;7.07;;;18.80;64.00;;;;;;1480536;40;20025;-61
2021/06/08 05:11:19;;;;;;;7.85;7.05;;;18.80;63.80;;;;;;1477290;40;20056;-60
2021/06/08 05:12:42;;;;;;;8.65;7.82;;;18.90;64.00;;;;;;1480762;40;20029;-61
2021/06/08 05:14:05;;;;;;;9.55;8.18;;;18.80;64.10;;;;;;1479695;40;20022;-60
2021/06/08 05:15:28;;;;;;;10.95;8.52;;;18.90;64.20;;;;;;1480752;40;20036;-60
2021/06/08 05:16:50;;;;;;;9.10;8.20;;;18.90;64.10;;;;;;1481355;40;20348;-60
2021/06/08 05:18:14;;;;;;;8.30;7.50;;;18.80;64.20;;;;;;1476672;40;20045;-60
2021/06/08 05:19:35;;;;;;;10.07;7.72;;;18.80;64.40;;;;;;1478334;40;20033;-61
2021/06/08 05:20:57;;;;;;;8.50;7.60;;;18.80;64.40;;;;;;1474497;40;20139;-61
2021/06/08 05:22:20;;;;;;;8.63;7.72;;;18.90;64.50;;;;;;1480302;40;20081;-60
2021/06/08 05:23:41;;;;;;;9.65;8.65;;;18.90;64.20;;;;;;1478375;40;20033;-61
2021/06/08 05:25:03;;;;;;;9.00;7.88;;;18.90;64.20;;;;;;1479585;40;20040;-61
2021/06/08 05:26:24;;;;;;;9.05;8.18;;;18.90;64.10;;;;;;1480111;40;20033;-61
2021/06/08 05:27:47;;;;;;;10.13;8.43;;;18.90;64.00;;;;;;1481900;40;20043;-61
2021/06/08 05:29:08;;;;;;;9.73;8.35;;;18.90;63.80;;;;;;1476511;40;20038;-60
2021/06/08 05:30:29;;;;;;;9.48;7.70;;;18.90;63.80;;;;;;1480101;40;20077;-61
2021/06/08 05:31:55;;;;;;;9.80;8.57;;;18.90;63.90;;;;;;1474679;40;20033;-61
2021/06/08 05:33:21;;;;;;;9.77;7.97;;;18.90;64.10;;;;;;1477449;40;20029;-60
2021/06/08 05:34:44;;;;;;;9.35;8.35;;;18.90;64.20;;;;;;1479704;40;20021;-61
2021/06/08 05:36:05;;;;;;;7.90;6.88;;;18.90;64.20;;;;;;1482256;40;20029;-60
2021/06/08 05:37:26;;;;;;;8.40;7.57;;;18.90;64.20;;;;;;1480972;40;20029;-61
2021/06/08 05:38:49;;;;;;;10.93;8.82;;;18.90;64.30;;;;;;1481076;40;20036;-60
2021/06/08 05:40:11;;;;;;;10.43;8.35;;;18.90;65.30;;;;;;1482370;40;20025;-61
2021/06/08 05:41:32;;;;;;;10.77;8.63;;;18.90;64.50;;;;;;1481948;40;20021;-61
2021/06/08 05:42:53;;;;;;;8.75;7.85;;;18.90;65.20;;;;;;1481424;40;20053;-60
2021/06/08 05:44:14;;;;;;;11.05;8.80;;;18.90;64.40;;;;;;1480531;40;20060;-60
2021/06/08 05:45:35;;;;;;;10.07;8.50;;;18.90;64.30;;;;;;1479547;40;20046;-60
2021/06/08 05:46:56;;;;;;;9.13;8.23;;;18.90;64.00;;;;;;1478209;40;20586;-60
2021/06/08 05:48:22;;;;;;;10.13;8.43;;;19.00;63.90;;;;;;1479556;40;20113;-61
2021/06/08 05:49:42;;;;;;;10.18;8.40;;;19.00;63.70;;;;;;1480586;40;20077;-61
2021/06/08 05:51:06;;;;;;;8.55;7.70;;;19.00;63.70;;;;;;1476011;40;20077;-60
2021/06/08 05:52:27;;;;;;;9.10;8.20;;;19.00;63.60;;;;;;1479704;40;20061;-60
2021/06/08 05:53:49;;;;;;;10.63;8.73;;;19.00;63.60;;;;;;1481645;40;20158;-60
2021/06/08 05:55:11;;;;;;;10.48;7.85;;;19.00;63.70;;;;;;1481659;40;20040;-60
2021/06/08 05:56:34;;;;;;;11.13;8.63;;;19.00;63.80;;;;;;1481326;40;20106;-60
2021/06/08 05:57:56;;;;;;;12.77;9.02;;;19.10;63.80;;;;;;1481531;40;20068;-60
2021/06/08 05:59:17;;;;;;;11.40;9.75;;;19.10;63.80;;;;;;1480201;40;20041;-60
2021/06/08 06:00:38;;;;;;;12.00;9.07;;;19.10;63.60;;;;;;1479260;40;20044;-60
2021/06/08 06:01:59;;;;;;;12.07;9.15;;;19.10;63.50;;;;;;1481246;40;20029;-60
2021/06/08 06:03:23;;;;;;;12.00;9.10;;;19.20;63.60;;;;;;1481206;40;20029;-60
2021/06/08 06:04:44;;;;;;;13.45;10.13;;;19.20;63.70;;;;;;1481938;40;20083;-61
2021/06/08 06:06:07;;;;;;;11.73;9.05;;;19.20;63.70;;;;;;1478927;40;20025;-60
2021/06/08 06:07:27;;;;;;;12.23;10.15;;;19.20;63.60;;;;;;1482416;40;20077;-60
2021/06/08 06:08:49;;;;;;;12.02;9.57;;;19.20;63.60;;;;;;1481293;40;20045;-60
2021/06/08 06:10:11;;;;;;;11.68;9.23;;;19.20;63.60;;;;;;1482337;40;20138;-60
2021/06/08 06:11:32;;;;;;;15.90;10.80;;;19.30;63.60;;;;;;1479257;40;20021;-60
2021/06/08 06:12:54;;;;;;;11.02;9.77;;;19.30;63.60;;;;;;1479511;40;20118;-60
2021/06/08 06:14:16;;;;;;;11.75;9.68;;;19.40;63.70;;;;;;1478768;40;20596;-60
2021/06/08 06:15:38;;;;;;;10.77;9.63;;;19.40;63.70;;;;;;1480924;40;20037;-60
2021/06/08 06:17:00;;;;;;;12.15;9.57;;;19.40;63.60;;;;;;1481010;40;20072;-60
2021/06/08 06:18:21;;;;;;;13.73;10.15;;;19.50;63.80;;;;;;1480323;40;20033;-60
2021/06/08 06:19:43;;;;;;;12.38;9.75;;;19.50;64.00;;;;;;1481335;40;20024;-60
2021/06/08 06:21:05;;;;;;;13.23;9.48;;;19.50;64.00;;;;;;1478861;40;20029;-61
2021/06/08 06:22:26;;;;;;;12.07;9.68;;;19.60;64.10;;;;;;1480987;40;20030;-60
2021/06/08 06:23:47;;;;;;;12.32;10.30;;;19.60;64.00;;;;;;1481548;40;20043;-61
2021/06/08 06:25:11;;;;;;;12.60;10.20;;;19.60;64.00;;;;;;1481986;40;20047;-61
2021/06/08 06:26:33;;;;;;;11.57;9.93;;;19.70;64.00;;;;;;1482397;40;20081;-60
2021/06/08 06:27:54;;;;;;;13.90;10.18;;;19.70;64.00;;;;;;1479773;40;20041;-61
2021/06/08 06:29:16;;;;;;;11.13;10.02;;;19.80;64.00;;;;;;1480819;40;20109;-61
2021/06/08 06:30:37;;;;;;;12.32;9.80;;;19.80;64.00;;;;;;1476207;40;20053;-61
2021/06/08 06:31:58;;;;;;;12.23;9.70;;;19.80;63.90;;;;;;1477243;40;20076;-61
2021/06/08 06:33:21;;;;;;;11.43;9.38;;;19.90;63.80;;;;;;1480419;40;20689;-60
2021/06/08 06:34:43;;;;;;;13.93;9.07;;;19.90;63.70;;;;;;1481929;40;20055;-61
2021/06/08 06:36:05;;;;;;;13.88;9.88;;;19.90;63.60;;;;;;1479159;40;20045;-61
2021/06/08 06:37:27;;;;;;;11.85;10.50;;;20.00;63.50;;;;;;1477978;40;20032;-61
2021/06/08 06:38:49;;;;;;;14.05;11.75;;;20.00;63.30;;;;;;1480818;40;20416;-61
2021/06/08 06:40:15;;;;;;;12.68;9.63;;;20.00;63.10;;;;;;1481654;40;20098;-60
2021/06/08 06:41:41;;;;;;;10.68;9.35;;;20.00;62.90;;;;;;1482070;40;20098;-61
2021/06/08 06:43:04;;;;;;;12.93;9.63;;;20.10;62.80;;;;;;1476891;40;20035;-61
2021/06/08 06:44:26;;;;;;;12.40;10.00;;;20.10;62.90;;;;;;1480259;40;20273;-61
2021/06/08 06:45:47;;;;;;;12.52;9.43;;;20.10;62.70;;;;;;1476932;40;20036;-61
2021/06/08 06:47:09;;;;;;;11.32;9.60;;;20.10;62.50;;;;;;1480015;40;20409;-60
2021/06/08 06:48:30;;;;;;;12.02;10.07;;;20.10;62.40;;;;;;1479801;40;20118;-61
2021/06/08 06:49:51;;;;;;;13.35;10.45;;;20.20;62.50;;;;;;1480719;40;20632;-61
2021/06/08 06:51:13;;;;;;;12.50;9.75;;;20.20;62.50;;;;;;1478488;40;20033;-60
2021/06/08 06:52:36;;;;;;;11.07;9.48;;;20.20;62.40;;;;;;1482659;40;20009;-61
2021/06/08 06:53:57;;;;;;;12.15;9.57;;;20.20;62.40;;;;;;1482699;40;20044;-61
2021/06/08 06:55:18;;;;;;;10.50;9.40;;;20.20;62.30;;;;;;1480793;40;20094;-61
2021/06/08 06:56:39;;;;;;;11.48;9.93;;;20.30;62.20;;;;;;1479119;40;20097;-61
2021/06/08 06:58:00;;;;;;;12.13;9.35;;;20.30;62.00;;;;;;1480369;40;20041;-60
2021/06/08 06:59:22;;;;;;;11.82;9.20;;;20.30;61.90;;;;;;1478186;40;20110;-61
2021/06/08 07:00:43;;;;;;;12.38;10.02;;;20.30;61.80;;;;;;1479871;40;20021;-61
2021/06/08 07:02:05;;;;;;;12.13;10.43;;;20.30;61.90;;;;;;1479357;40;20118;-61
2021/06/08 07:03:31;;;;;;;11.98;9.15;;;20.40;61.90;;;;;;1479820;40;20029;-61
2021/06/08 07:04:54;;;;;;;13.38;9.60;;;20.40;61.80;;;;;;1478976;40;20552;-61